createdAt,value
2023-01-21T00:01:13.189Z,14.23
2023-01-21T00:04:14.603Z,16.00
2023-01-21T00:07:16.016Z,15.73
2023-01-21T00:10:18.756Z,13.83
2023-01-21T00:13:20.277Z,15.10
2023-01-21T00:16:21.698Z,15.40
2023-01-21T00:19:23.102Z,15.77
2023-01-21T00:22:24.547Z,19.23
2023-01-21T00:25:26.008Z,17.83
2023-01-21T00:28:29.083Z,20.03
2023-01-21T00:31:30.649Z,21.57
2023-01-21T00:34:32.071Z,19.40
2023-01-21T00:37:33.744Z,19.87
2023-01-21T00:40:35.123Z,22.83
2023-01-21T00:43:37.009Z,19.93
2023-01-21T00:46:38.540Z,19.77
2023-01-21T00:49:39.970Z,20.67
2023-01-21T00:52:41.368Z,19.23
2023-01-21T00:55:42.773Z,21.03
2023-01-21T00:58:44.388Z,21.23
2023-01-21T01:01:46.099Z,21.43
2023-01-21T01:04:47.564Z,22.07
2023-01-21T01:07:50.201Z,21.57
2023-01-21T01:10:54.390Z,19.33
2023-01-21T01:13:56.439Z,20.93
2023-01-21T01:16:57.832Z,20.23
2023-01-21T01:19:59.233Z,22.43
2023-01-21T01:23:00.632Z,20.00
2023-01-21T01:26:04.905Z,21.67
2023-01-21T01:29:07.050Z,22.97
2023-01-21T01:32:09.315Z,20.57
2023-01-21T01:35:10.708Z,19.70
2023-01-21T01:38:13.726Z,19.17
2023-01-21T01:41:18.268Z,22.77
2023-01-21T01:44:57.065Z,19.97
2023-01-21T01:48:03.072Z,21.13
2023-01-21T01:51:07.339Z,19.53
2023-01-21T01:54:10.767Z,19.27
2023-01-21T01:57:14.721Z,21.30
2023-01-21T02:00:17.128Z,21.30
2023-01-21T02:03:38.164Z,22.37
2023-01-21T02:06:40.722Z,23.30
2023-01-21T02:09:42.229Z,26.33
2023-01-21T02:12:44.319Z,20.70
2023-01-21T02:16:01.072Z,23.97
2023-01-21T02:19:39.686Z,23.47
2023-01-21T02:22:54.988Z,20.87
2023-01-21T02:26:21.102Z,22.80
2023-01-21T02:29:47.335Z,23.57
2023-01-21T02:33:32.630Z,24.10
2023-01-21T02:36:53.530Z,24.93
2023-01-21T02:40:00.756Z,23.33
2023-01-21T02:43:18.271Z,24.30
2023-01-21T02:46:33.997Z,21.93
2023-01-21T02:50:14.416Z,21.03
2023-01-21T02:53:31.026Z,21.70
2023-01-21T02:56:32.435Z,22.87
2023-01-21T02:59:35.071Z,24.23
2023-01-21T03:03:07.221Z,22.70
2023-01-21T03:06:08.574Z,20.93
2023-01-21T03:09:24.406Z,23.20
2023-01-21T03:12:46.157Z,25.90
2023-01-21T03:16:14.682Z,24.90
2023-01-21T03:19:18.387Z,21.57
2023-01-21T03:22:24.908Z,21.67
2023-01-21T03:25:29.440Z,23.00
2023-01-21T03:28:34.391Z,20.90
2023-01-21T03:31:39.246Z,23.07
2023-01-21T03:34:44.567Z,26.43
2023-01-21T03:37:58.351Z,25.50
2023-01-21T03:41:09.499Z,24.43
2023-01-21T03:44:10.979Z,20.37
2023-01-21T03:47:25.258Z,21.57
2023-01-21T03:50:34.172Z,23.30
2023-01-21T03:53:35.701Z,23.27
2023-01-21T03:56:37.135Z,23.27
2023-01-21T03:59:38.641Z,21.13
2023-01-21T04:02:40.068Z,24.67
2023-01-21T04:05:41.453Z,23.60
2023-01-21T04:08:43.200Z,22.50
2023-01-21T04:11:44.599Z,23.63
2023-01-21T04:14:46.084Z,24.43
2023-01-21T04:17:47.463Z,20.93
2023-01-21T04:20:49.701Z,21.50
2023-01-21T04:23:51.096Z,22.93
2023-01-21T04:26:52.977Z,21.93
2023-01-21T04:29:54.425Z,19.90
2023-01-21T04:32:55.823Z,20.13
2023-01-21T04:35:59.427Z,20.37
2023-01-21T04:39:00.801Z,23.93
2023-01-21T04:42:02.226Z,22.00
2023-01-21T04:45:03.971Z,22.70
2023-01-21T04:48:05.524Z,23.53
2023-01-21T04:51:07.793Z,23.03
2023-01-21T04:54:11.133Z,21.83
2023-01-21T04:57:12.549Z,23.33
2023-01-21T05:00:14.560Z,23.27
2023-01-21T05:03:16.354Z,21.37
2023-01-21T05:06:17.844Z,20.93
2023-01-21T05:09:19.241Z,21.43
2023-01-21T05:12:20.629Z,21.77
2023-01-21T05:15:22.020Z,21.30
2023-01-21T05:18:23.428Z,20.60
2023-01-21T05:21:25.017Z,22.40
2023-01-21T05:24:26.438Z,18.87
2023-01-21T05:27:28.205Z,20.67
2023-01-21T05:30:29.678Z,19.53
2023-01-21T05:33:32.796Z,19.60
2023-01-21T05:36:34.191Z,20.40
2023-01-21T05:39:35.655Z,18.93
2023-01-21T05:42:37.041Z,16.63
2023-01-21T05:45:38.433Z,17.20
2023-01-21T05:48:39.847Z,18.63
2023-01-21T05:51:41.312Z,19.67
2023-01-21T05:54:59.923Z,18.17
2023-01-21T05:58:02.650Z,20.40
2023-01-21T06:01:04.316Z,19.40
2023-01-21T06:04:05.747Z,18.37
2023-01-21T06:07:07.141Z,19.07
2023-01-21T06:10:09.062Z,18.47
2023-01-21T06:13:15.017Z,20.97
2023-01-21T06:16:16.415Z,21.10
2023-01-21T06:19:18.164Z,20.03
2023-01-21T06:22:19.820Z,21.00
2023-01-21T06:25:21.210Z,20.40
2023-01-21T06:28:22.623Z,24.07
2023-01-21T06:31:24.361Z,18.87
2023-01-21T06:34:25.882Z,17.53
2023-01-21T06:37:27.315Z,16.73
2023-01-21T06:40:28.801Z,16.47
2023-01-21T06:43:30.290Z,19.47
2023-01-21T06:46:31.990Z,18.43
2023-01-21T06:49:33.441Z,18.20
2023-01-21T06:52:34.849Z,19.67
2023-01-21T06:55:36.239Z,18.20
2023-01-21T06:58:37.626Z,17.90
2023-01-21T07:01:39.237Z,19.23
2023-01-21T07:04:40.677Z,18.23
2023-01-21T07:07:42.191Z,16.17
2023-01-21T07:10:44.316Z,18.53
2023-01-21T07:13:46.979Z,17.20
2023-01-21T07:16:48.353Z,15.37
2023-01-21T07:19:49.854Z,17.23
2023-01-21T07:22:51.419Z,17.07
2023-01-21T07:25:52.822Z,16.57
2023-01-21T07:28:54.314Z,16.60
2023-01-21T07:31:55.791Z,19.77
2023-01-21T07:34:57.289Z,17.13
2023-01-21T07:37:58.692Z,19.13
2023-01-21T07:41:00.112Z,17.83
2023-01-21T07:44:01.553Z,23.57
2023-01-21T07:47:03.054Z,22.87
2023-01-21T07:50:08.416Z,20.90
2023-01-21T07:53:11.789Z,17.80
2023-01-21T07:56:13.628Z,18.43
2023-01-21T07:59:15.079Z,23.43
2023-01-21T08:02:16.610Z,19.60
2023-01-21T08:05:18.338Z,18.97
2023-01-21T08:08:20.073Z,20.10
2023-01-21T08:11:21.452Z,20.27
2023-01-21T08:14:22.971Z,20.83
2023-01-21T08:17:24.359Z,18.03
2023-01-21T08:20:25.872Z,18.30
2023-01-21T08:23:27.393Z,19.73
2023-01-21T08:26:28.771Z,19.63
2023-01-21T08:29:30.347Z,21.60
2023-01-21T08:32:31.739Z,18.03
2023-01-21T08:35:33.329Z,21.20
2023-01-21T08:38:35.029Z,19.87
2023-01-21T08:41:36.422Z,20.93
2023-01-21T08:44:37.839Z,17.67
2023-01-21T08:47:39.276Z,23.73
2023-01-21T08:50:40.767Z,22.07
2023-01-21T08:53:42.180Z,20.73
2023-01-21T08:56:43.654Z,20.33
2023-01-21T08:59:45.022Z,22.67
2023-01-21T09:02:46.519Z,22.20
2023-01-21T09:05:48.346Z,19.83
2023-01-21T09:08:49.980Z,19.03
2023-01-21T09:11:52.663Z,22.07
2023-01-21T09:14:54.087Z,20.20
2023-01-21T09:17:55.535Z,20.43
2023-01-21T09:21:04.972Z,23.97
2023-01-21T09:24:06.835Z,23.27
2023-01-21T09:27:08.725Z,22.00
2023-01-21T09:30:10.721Z,22.37
2023-01-21T09:33:13.802Z,21.40
2023-01-21T09:36:18.957Z,24.70
2023-01-21T09:39:20.360Z,22.50
2023-01-21T09:42:32.407Z,21.00
2023-01-21T09:45:34.053Z,23.10
2023-01-21T09:48:41.825Z,20.60
2023-01-21T09:51:52.491Z,23.13
2023-01-21T09:54:55.657Z,24.00
2023-01-21T09:58:40.312Z,23.83
2023-01-21T10:01:42.858Z,22.43
2023-01-21T10:05:35.572Z,23.47
2023-01-21T10:08:58.941Z,22.73
2023-01-21T10:12:00.297Z,25.83
2023-01-21T10:15:21.078Z,24.73
2023-01-21T10:18:31.128Z,24.70
2023-01-21T10:21:45.264Z,27.27
2023-01-21T10:24:52.044Z,24.43
2023-01-21T10:27:55.121Z,25.67
2023-01-21T10:31:04.438Z,25.17
2023-01-21T10:34:18.099Z,26.97
2023-01-21T10:37:48.125Z,25.93
2023-01-21T10:41:00.264Z,24.67
2023-01-21T10:44:07.779Z,25.43
2023-01-21T10:47:37.745Z,25.67
2023-01-21T10:50:54.892Z,23.77
2023-01-21T10:54:09.767Z,28.63
2023-01-21T10:57:43.597Z,28.33
2023-01-21T11:00:49.199Z,26.70
2023-01-21T11:03:53.366Z,26.30
2023-01-21T11:07:01.769Z,27.03
2023-01-21T11:10:05.956Z,27.47
2023-01-21T11:13:13.282Z,26.97
2023-01-21T11:16:39.463Z,31.07
2023-01-21T11:19:42.201Z,27.77
2023-01-21T11:22:45.481Z,27.53
2023-01-21T11:25:48.964Z,31.57
2023-01-21T11:29:07.083Z,29.47
2023-01-21T11:32:27.276Z,30.37
2023-01-21T11:35:28.704Z,32.13
2023-01-21T11:38:34.212Z,29.50
2023-01-21T11:41:36.259Z,27.93
2023-01-21T11:44:51.880Z,28.30
2023-01-21T11:47:53.853Z,27.03
2023-01-21T11:51:07.985Z,32.40
2023-01-21T11:54:20.634Z,27.93
2023-01-21T11:57:27.488Z,25.93
2023-01-21T12:00:36.247Z,25.87
2023-01-21T12:03:44.625Z,26.50
2023-01-21T12:06:48.073Z,29.47
2023-01-21T12:09:55.077Z,24.60
2023-01-21T12:13:28.925Z,23.87
2023-01-21T12:17:05.397Z,28.27
2023-01-21T12:20:20.894Z,26.73
2023-01-21T12:23:49.764Z,26.97
2023-01-21T12:27:09.688Z,27.23
2023-01-21T12:30:24.700Z,25.40
2023-01-21T12:33:32.204Z,25.97
2023-01-21T12:36:44.362Z,25.20
2023-01-21T12:39:48.843Z,26.53
2023-01-21T12:42:55.920Z,33.33
2023-01-21T12:46:10.390Z,30.80
2023-01-21T12:49:19.206Z,28.63
2023-01-21T12:52:36.924Z,37.23
2023-01-21T12:55:58.470Z,24.10
2023-01-21T12:59:08.715Z,24.93
2023-01-21T13:02:27.406Z,26.00
2023-01-21T13:05:46.177Z,20.80
2023-01-21T13:08:58.321Z,26.83
2023-01-21T13:12:05.399Z,24.30
2023-01-21T13:15:19.316Z,22.03
2023-01-21T13:18:32.395Z,25.00
2023-01-21T13:21:49.025Z,26.47
2023-01-21T13:24:59.715Z,25.73
2023-01-21T13:28:01.268Z,23.57
2023-01-21T13:31:20.129Z,26.37
2023-01-21T13:34:52.956Z,23.17
2023-01-21T13:38:20.579Z,27.73
2023-01-21T13:41:40.091Z,27.40
2023-01-21T13:44:47.934Z,32.13
2023-01-21T13:47:58.605Z,28.47
2023-01-21T13:51:25.671Z,30.87
2023-01-21T13:54:33.039Z,26.47
2023-01-21T13:57:54.678Z,28.53
2023-01-21T14:01:02.373Z,29.33
2023-01-21T14:04:12.449Z,23.40
2023-01-21T14:07:33.328Z,25.03
2023-01-21T14:10:50.606Z,22.93
2023-01-21T14:14:04.270Z,22.87
2023-01-21T14:17:47.603Z,23.67
2023-01-21T14:21:26.877Z,21.27
2023-01-21T14:24:42.878Z,19.60
2023-01-21T14:28:11.649Z,21.27
2023-01-21T14:31:22.535Z,21.13
2023-01-21T14:34:40.421Z,20.63
2023-01-21T14:37:47.193Z,17.90
2023-01-21T14:40:51.082Z,18.60
2023-01-21T14:43:52.912Z,18.80
2023-01-21T14:47:16.309Z,18.80
2023-01-21T14:50:53.459Z,21.00
2023-01-21T14:54:01.881Z,18.90
2023-01-21T14:57:18.314Z,23.13
2023-01-21T15:00:32.218Z,17.23
2023-01-21T15:03:43.307Z,21.87
2023-01-21T15:06:45.012Z,16.80
2023-01-21T15:09:55.841Z,22.27
2023-01-21T15:13:04.533Z,19.80
2023-01-21T15:16:32.777Z,17.90
2023-01-21T15:19:35.789Z,17.47
2023-01-21T15:22:40.828Z,18.13
2023-01-21T15:26:08.275Z,19.10
2023-01-21T15:29:22.851Z,21.97
2023-01-21T15:32:31.748Z,20.63
2023-01-21T15:35:36.081Z,19.73
2023-01-21T15:38:40.568Z,18.33
2023-01-21T15:42:02.993Z,17.77
2023-01-21T15:45:07.214Z,18.80
2023-01-21T15:48:40.710Z,20.77
2023-01-21T15:52:26.065Z,20.20
2023-01-21T15:56:00.753Z,19.70
2023-01-21T15:59:21.232Z,19.80
2023-01-21T16:02:32.308Z,18.63
2023-01-21T16:06:15.821Z,19.30
2023-01-21T16:09:37.985Z,17.60
2023-01-21T16:12:45.665Z,18.47
2023-01-21T16:16:31.657Z,20.37
2023-01-21T16:19:37.893Z,17.70
2023-01-21T16:22:43.429Z,17.83
2023-01-21T16:25:47.716Z,18.07
2023-01-21T16:28:49.648Z,21.23
2023-01-21T16:32:01.665Z,19.03
2023-01-21T16:35:04.622Z,19.90
2023-01-21T16:38:06.019Z,22.03
2023-01-21T16:41:07.353Z,23.83
2023-01-21T16:44:15.861Z,22.03
2023-01-21T16:47:25.623Z,16.17
2023-01-21T16:50:29.346Z,18.97
2023-01-21T16:53:30.747Z,17.33
2023-01-21T16:56:32.166Z,17.03
2023-01-21T16:59:42.251Z,16.77
2023-01-21T17:02:43.754Z,17.03
2023-01-21T17:05:46.171Z,15.97
2023-01-21T17:08:54.044Z,17.37
2023-01-21T17:11:57.960Z,17.37
2023-01-21T17:15:17.026Z,19.47
2023-01-21T17:18:27.355Z,14.90
2023-01-21T17:21:35.359Z,17.53
2023-01-21T17:24:44.107Z,20.73
2023-01-21T17:27:45.797Z,17.77
2023-01-21T17:30:47.254Z,19.27
2023-01-21T17:34:04.670Z,16.87
2023-01-21T17:37:42.663Z,21.10
2023-01-21T17:41:03.600Z,19.97
2023-01-21T17:44:18.262Z,20.00
2023-01-21T17:47:54.271Z,20.87
2023-01-21T17:51:13.679Z,22.03
2023-01-21T17:54:20.710Z,17.37
2023-01-21T17:57:35.633Z,15.37
2023-01-21T18:00:44.766Z,15.83
2023-01-21T18:03:46.233Z,17.33
2023-01-21T18:06:47.773Z,20.97
2023-01-21T18:09:53.807Z,20.90
2023-01-21T18:12:57.763Z,16.27
2023-01-21T18:15:59.221Z,17.33
2023-01-21T18:19:00.742Z,16.60
2023-01-21T18:22:04.037Z,18.17
2023-01-21T18:25:06.520Z,16.73
2023-01-21T18:28:18.467Z,15.07
2023-01-21T18:31:20.130Z,17.13
2023-01-21T18:34:21.638Z,18.50
2023-01-21T18:37:25.108Z,16.83
2023-01-21T18:40:26.703Z,16.77
2023-01-21T18:43:28.101Z,15.50
2023-01-21T18:46:29.612Z,15.80
2023-01-21T18:49:31.037Z,14.27
2023-01-21T18:52:32.557Z,16.77
2023-01-21T18:55:34.534Z,15.93
2023-01-21T18:58:35.942Z,15.47
2023-01-21T19:01:37.439Z,16.23
2023-01-21T19:04:38.926Z,16.43
2023-01-21T19:07:40.622Z,15.43
2023-01-21T19:10:42.242Z,16.70
2023-01-21T19:13:43.746Z,15.63
2023-01-21T19:16:45.711Z,13.47
2023-01-21T19:19:47.096Z,15.67
2023-01-21T19:22:49.474Z,15.73
2023-01-21T19:25:55.613Z,15.63
2023-01-21T19:28:57.046Z,14.70
2023-01-21T19:31:58.457Z,15.10
2023-01-21T19:35:01.747Z,13.80
2023-01-21T19:38:09.556Z,15.23
2023-01-21T19:41:11.083Z,13.67
2023-01-21T19:44:12.439Z,15.70
2023-01-21T19:47:26.528Z,14.80
2023-01-21T19:50:28.035Z,13.87
2023-01-21T19:53:29.439Z,15.77
2023-01-21T19:56:30.881Z,15.67
2023-01-21T19:59:34.665Z,15.03
2023-01-21T20:02:36.079Z,17.70
2023-01-21T20:05:37.600Z,14.90
2023-01-21T20:08:39.085Z,15.43
2023-01-21T20:11:40.789Z,15.93
2023-01-21T20:14:42.213Z,18.17
2023-01-21T20:17:50.495Z,15.83
2023-01-21T20:20:53.162Z,14.40
2023-01-21T20:23:54.584Z,16.20
2023-01-21T20:26:55.971Z,15.73
2023-01-21T20:30:14.837Z,16.93
2023-01-21T20:33:20.790Z,15.90
2023-01-21T20:36:24.746Z,17.00
2023-01-21T20:39:26.365Z,15.43
2023-01-21T20:42:28.105Z,16.20
2023-01-21T20:45:44.435Z,17.67
2023-01-21T20:48:46.065Z,18.63
2023-01-21T20:51:47.492Z,18.47
2023-01-21T20:54:49.592Z,17.67
2023-01-21T20:57:51.030Z,19.63
2023-01-21T21:00:52.477Z,19.40
2023-01-21T21:03:53.992Z,20.00
2023-01-21T21:06:55.562Z,18.33
2023-01-21T21:09:59.878Z,16.57
2023-01-21T21:13:01.653Z,15.90
2023-01-21T21:16:13.410Z,16.67
2023-01-21T21:19:14.819Z,16.10
2023-01-21T21:22:16.289Z,16.83
2023-01-21T21:25:23.186Z,17.80
2023-01-21T21:28:24.592Z,16.87
2023-01-21T21:31:32.485Z,17.87
2023-01-21T21:34:34.273Z,17.40
2023-01-21T21:37:35.664Z,18.43
2023-01-21T21:40:37.049Z,16.37
2023-01-21T21:43:41.411Z,16.10
2023-01-21T21:47:01.967Z,17.87
2023-01-21T21:50:03.662Z,17.50
2023-01-21T21:53:05.111Z,19.10
2023-01-21T21:56:15.268Z,20.97
2023-01-21T21:59:16.671Z,17.10
2023-01-21T22:02:19.207Z,17.30
2023-01-21T22:05:20.770Z,17.67
2023-01-21T22:08:22.385Z,18.80
2023-01-21T22:11:24.462Z,17.90
2023-01-21T22:14:25.873Z,15.80
2023-01-21T22:17:27.580Z,15.93
2023-01-21T22:20:28.991Z,14.93
2023-01-21T22:23:31.847Z,18.07
2023-01-21T22:26:35.587Z,18.03
2023-01-21T22:29:36.952Z,20.90
2023-01-21T22:32:38.337Z,17.57
2023-01-21T22:35:40.355Z,16.80
2023-01-21T22:38:42.503Z,17.27
2023-01-21T22:41:44.097Z,19.73
2023-01-21T22:44:45.551Z,16.27
2023-01-21T22:47:46.921Z,18.13
2023-01-21T22:50:56.141Z,17.23
2023-01-21T22:53:59.945Z,16.47
2023-01-21T22:57:01.347Z,16.77
2023-01-21T23:00:03.872Z,18.93
2023-01-21T23:03:07.196Z,16.70
2023-01-21T23:06:08.619Z,17.43
2023-01-21T23:09:14.889Z,17.53
2023-01-21T23:12:19.166Z,15.90
2023-01-21T23:15:22.071Z,19.40
2023-01-21T23:18:25.683Z,20.30
2023-01-21T23:21:27.081Z,16.20
2023-01-21T23:24:28.495Z,17.40
2023-01-21T23:27:29.879Z,18.77
2023-01-21T23:30:32.875Z,15.80
2023-01-21T23:33:35.056Z,16.17
2023-01-21T23:36:36.445Z,18.00
2023-01-21T23:39:38.079Z,17.07
2023-01-21T23:42:39.458Z,15.33
2023-01-21T23:45:40.837Z,15.30
2023-01-21T23:48:42.507Z,18.27
2023-01-21T23:51:44.716Z,17.83
2023-01-21T23:54:46.270Z,15.03
2023-01-21T23:57:47.673Z,15.50
